Time;durP1;ratioP1;P1;durP2;ratioP2;P2;SDS_P1;SDS_P2;PMS_P1;PMS_P2;Temp;Humidity;BMP_temperature;BMP_pressure;BME280_temperature;BME280_humidity;BME280_pressure;Samples;Min_cycle;Max_cycle;Signal;HPM_P1;HPM_P2
2021/04/26 04:41:16;;;;;;;17.55;7.97;;;;;;;5.06;80.76;99861.05;1723414;81;21252;-41
2021/04/26 04:43:44;;;;;;;9.85;6.87;;;;;;;5.15;81.14;99838.26;1651807;85;21635;-38
2021/04/26 04:46:12;;;;;;;17.35;9.13;;;;;;;5.20;81.22;99842.66;1628694;87;21194;-36
2021/04/26 04:48:42;;;;;;;15.78;8.15;;;;;;;5.28;81.23;99833.29;1668991;84;21755;-36
2021/04/26 04:51:15;;;;;;;6.17;4.55;;;;;;;5.32;81.32;99849.75;1663418;84;21351;-36
2021/04/26 04:53:46;;;;;;;9.63;5.92;;;;;;;5.38;80.76;99871.87;1665938;84;21181;-41
2021/04/26 04:56:15;;;;;;;11.48;6.67;;;;;;;5.41;80.36;99847.30;1662211;84;21176;-36
2021/04/26 04:58:44;;;;;;;11.25;6.55;;;;;;;5.46;80.40;99839.58;1665947;84;21117;-38
2021/04/26 05:01:13;;;;;;;9.73;6.80;;;;;;;5.50;80.42;99843.51;1672819;84;21806;-42
2021/04/26 05:04:07;;;;;;;11.45;6.97;;;;;;;5.63;80.44;99850.19;1796860;78;23114;-42
2021/04/26 05:06:37;;;;;;;10.13;6.65;;;;;;;5.68;80.75;99853.68;1714291;80;21167;-36
2021/04/26 05:09:24;;;;;;;10.30;6.45;;;;;;;5.78;81.02;99852.52;1766420;80;21166;-37
2021/04/26 05:12:05;;;;;;;9.80;6.58;;;;;;;5.93;80.61;99845.39;1745150;81;21210;-43
2021/04/26 05:14:36;;;;;;;16.52;6.70;;;;;;;6.07;80.22;99842.94;1698614;83;21147;-42
2021/04/26 05:17:04;;;;;;;11.00;6.65;;;;;;;6.20;80.00;99833.11;1706437;82;21385;-42
2021/04/26 05:19:32;;;;;;;8.78;6.85;;;;;;;6.34;79.41;99834.56;1704564;82;21201;-42
2021/04/26 05:22:01;;;;;;;12.18;7.12;;;;;;;6.49;78.64;99827.33;1716603;82;21162;-42
2021/04/26 05:24:31;;;;;;;7.08;6.33;;;;;;;6.64;78.53;99825.73;1687533;83;21234;-42
2021/04/26 05:26:59;;;;;;;9.45;6.08;;;;;;;6.84;78.32;99819.41;1713971;83;21136;-41
2021/04/26 05:29:27;;;;;;;8.38;5.58;;;;;;;7.05;78.32;99819.11;1710526;83;21172;-42
2021/04/26 05:31:58;;;;;;;11.57;7.33;;;;;;;7.23;77.54;99820.52;1715131;82;21191;-36
2021/04/26 05:34:28;;;;;;;10.38;6.53;;;;;;;7.32;77.50;99817.98;1712413;83;21150;-37
2021/04/26 05:36:58;;;;;;;7.92;5.87;;;;;;;7.31;77.27;99811.05;1711676;83;21162;-36
2021/04/26 05:39:27;;;;;;;9.38;5.92;;;;;;;7.30;76.85;99813.61;1737018;81;21183;-37
2021/04/26 05:41:55;;;;;;;9.93;5.90;;;;;;;7.31;77.06;99808.45;1714001;82;21166;-42
2021/04/26 05:44:24;;;;;;;12.75;8.08;;;;;;;7.32;77.34;99808.88;1684405;83;21163;-41
2021/04/26 05:47:18;;;;;;;14.85;8.23;;;;;;;7.37;76.67;99797.20;1766255;79;23140;-41
2021/04/26 05:49:46;;;;;;;9.73;6.40;;;;;;;7.30;77.06;99806.67;1731924;80;21136;-42
2021/04/26 05:52:14;;;;;;;7.15;4.92;;;;;;;7.32;77.23;99800.20;1710403;82;21467;-41
2021/04/26 05:54:44;;;;;;;8.85;5.08;;;;;;;7.37;76.46;99798.06;1713844;82;21147;-41
2021/04/26 05:57:12;;;;;;;6.75;4.28;;;;;;;7.43;75.21;99796.79;1684044;84;21988;-41
2021/04/26 05:59:40;;;;;;;9.93;5.08;;;;;;;7.49;74.72;99785.97;1653153;84;21177;-41
2021/04/26 06:02:08;;;;;;;6.20;4.70;;;;;;;7.53;74.66;99782.06;1676995;83;21172;-41
2021/04/26 06:04:36;;;;;;;12.80;5.00;;;;;;;7.60;74.63;99777.78;1675196;84;21327;-36
2021/04/26 06:07:04;;;;;;;7.05;4.28;;;;;;;7.65;73.27;99774.33;1670171;83;21161;-36
2021/04/26 06:09:36;;;;;;;11.25;4.62;;;;;;;7.70;73.75;99774.31;1677813;83;21644;-35
2021/04/26 06:12:06;;;;;;;10.80;5.05;;;;;;;7.77;73.93;99779.11;1673841;83;21204;-36
2021/04/26 06:14:35;;;;;;;7.05;4.90;;;;;;;7.83;74.65;99771.34;1676589;83;21161;-35
2021/04/26 06:17:08;;;;;;;6.45;4.80;;;;;;;7.88;74.05;99773.50;1672419;83;21204;-36
2021/04/26 06:19:40;;;;;;;10.90;5.47;;;;;;;7.89;73.87;99776.12;1639295;84;21693;-36
2021/04/26 06:22:11;;;;;;;7.58;5.40;;;;;;;7.90;73.54;99778.30;1669628;84;21206;-41
2021/04/26 06:24:42;;;;;;;13.60;5.83;;;;;;;7.88;73.42;99775.67;1667537;84;21192;-36
2021/04/26 06:27:29;;;;;;;9.40;5.72;;;;;;;7.86;71.40;99776.55;1645693;84;21185;-36
2021/04/26 06:29:59;;;;;;;13.53;8.73;;;;;;;7.84;71.32;99778.28;1664118;84;21792;-41
2021/04/26 06:32:29;;;;;;;13.80;8.03;;;;;;;7.80;71.34;99784.34;1671817;84;21365;-42
2021/04/26 06:34:57;;;;;;;9.28;5.42;;;;;;;7.76;70.84;99782.14;1673222;84;21317;-42
2021/04/26 06:37:26;;;;;;;6.87;5.05;;;;;;;7.72;70.27;99778.69;1668260;84;21303;-41
2021/04/26 06:39:55;;;;;;;7.22;4.58;;;;;;;7.71;70.69;99777.35;1670770;84;21187;-42
2021/04/26 06:42:24;;;;;;;10.28;4.87;;;;;;;7.69;71.17;99785.16;1670347;84;21328;-42
2021/04/26 06:44:51;;;;;;;6.47;4.67;;;;;;;7.67;70.75;99786.91;1672180;84;21209;-42
2021/04/26 06:47:19;;;;;;;6.70;4.90;;;;;;;7.66;70.13;99785.17;1661143;84;21232;-37
2021/04/26 06:49:47;;;;;;;9.25;4.67;;;;;;;7.67;70.70;99778.23;1699377;82;21168;-42
2021/04/26 06:52:15;;;;;;;5.87;4.03;;;;;;;7.66;71.64;99779.97;1700468;82;21179;-37
2021/04/26 06:54:46;;;;;;;4.00;3.17;;;;;;;7.66;72.41;99783.88;1699011;82;21179;-42
2021/04/26 06:57:15;;;;;;;7.00;4.15;;;;;;;7.65;73.52;99789.05;1702930;82;21203;-42
2021/04/26 06:59:43;;;;;;;7.97;4.33;;;;;;;7.59;74.93;99796.84;1671468;84;21189;-42
2021/04/26 07:02:12;;;;;;;7.28;4.85;;;;;;;7.50;76.19;99808.53;1704309;82;21333;-42
2021/04/26 07:04:40;;;;;;;7.50;5.80;;;;;;;7.31;76.43;99825.80;1697298;82;22196;-37
2021/04/26 07:07:07;;;;;;;6.53;4.53;;;;;;;6.91;77.16;99838.09;1669120;84;21225;-37
2021/04/26 07:09:35;;;;;;;5.45;4.33;;;;;;;6.36;77.66;99841.94;1663643;84;21200;-43
2021/04/26 07:12:07;;;;;;;6.53;4.80;;;;;;;5.79;78.88;99840.41;1662767;84;21209;-42
2021/04/26 07:14:35;;;;;;;7.40;4.40;;;;;;;5.30;81.36;99853.63;1659189;84;21210;-36
2021/04/26 07:17:05;;;;;;;4.95;4.17;;;;;;;4.91;82.87;99855.62;1661516;84;21180;-37
2021/04/26 07:19:37;;;;;;;6.20;4.05;;;;;;;4.65;84.19;99859.97;1596448;84;21216;-43
2021/04/26 07:22:05;;;;;;;4.28;3.85;;;;;;;4.49;85.12;99861.41;1662070;84;21735;-37
2021/04/26 07:24:34;;;;;;;5.12;4.37;;;;;;;4.38;86.08;99864.23;1665113;84;21652;-37
2021/04/26 07:27:02;;;;;;;4.10;3.65;;;;;;;4.30;86.43;99858.05;1659727;84;21667;-42
2021/04/26 07:29:31;;;;;;;5.20;4.12;;;;;;;4.23;86.65;99868.73;1697052;82;21156;-37
2021/04/26 07:32:03;;;;;;;6.37;3.90;;;;;;;4.20;86.81;99849.66;1701620;82;21609;-36
2021/04/26 07:34:31;;;;;;;4.47;3.92;;;;;;;4.21;87.34;99841.91;1654640;84;21199;-37
2021/04/26 07:37:02;;;;;;;6.70;4.05;;;;;;;4.27;87.57;99830.79;1667308;84;21210;-37
2021/04/26 07:39:41;;;;;;;3.87;3.37;;;;;;;4.33;87.82;99834.78;1581192;86;21202;-42
2021/04/26 07:42:09;;;;;;;3.50;3.20;;;;;;;4.42;88.29;99846.61;1650106;85;21752;-38
2021/04/26 07:44:40;;;;;;;3.95;3.50;;;;;;;4.49;88.67;99854.94;1663988;84;21205;-42
2021/04/26 07:47:13;;;;;;;4.78;3.62;;;;;;;4.50;88.36;99870.05;1649302;85;21307;-37
2021/04/26 07:49:45;;;;;;;2.85;2.55;;;;;;;4.44;87.51;99879.88;1707873;82;21772;-36
2021/04/26 07:52:27;;;;;;;3.65;2.52;;;;;;;4.35;86.79;99878.83;1688369;82;21575;-37
2021/04/26 07:54:58;;;;;;;3.72;3.33;;;;;;;4.23;86.29;99875.20;1702072;82;21182;-38
2021/04/26 07:57:34;;;;;;;4.58;2.22;;;;;;;4.14;86.93;99875.02;1687924;82;21585;-42
2021/04/26 08:00:08;;;;;;;2.72;2.45;;;;;;;4.09;87.49;99876.64;1712674;82;21196;-36
2021/04/26 08:02:44;;;;;;;6.22;3.02;;;;;;;4.10;87.63;99881.39;1680014;82;21203;-42
2021/04/26 08:05:15;;;;;;;3.05;2.40;;;;;;;4.12;88.27;99888.37;1708242;82;21187;-37
2021/04/26 08:07:44;;;;;;;2.30;1.92;;;;;;;4.12;87.28;99887.50;1710316;82;21146;-37
2021/04/26 08:10:12;;;;;;;2.27;1.77;;;;;;;4.11;86.96;99886.59;1711628;82;21466;-37
2021/04/26 08:12:45;;;;;;;2.15;1.80;;;;;;;4.13;86.96;99882.77;1708744;82;21193;-42
2021/04/26 08:15:15;;;;;;;1.77;1.67;;;;;;;4.16;86.32;99890.57;1678275;84;21539;-37
2021/04/26 08:17:43;;;;;;;1.90;1.70;;;;;;;4.21;86.64;99894.13;1705843;82;21148;-43
2021/04/26 08:20:12;;;;;;;2.20;1.55;;;;;;;4.26;85.98;99897.68;1708833;82;21200;-42
2021/04/26 08:22:40;;;;;;;1.50;1.40;;;;;;;4.31;85.61;99911.59;1711699;82;21185;-43
2021/04/26 08:25:12;;;;;;;1.32;1.22;;;;;;;4.35;85.32;99900.84;1710511;82;21217;-42
2021/04/26 08:27:45;;;;;;;1.98;1.72;;;;;;;4.40;85.01;99901.81;1709028;82;21180;-38
2021/04/26 08:30:18;;;;;;;1.70;1.60;;;;;;;4.47;85.23;99915.35;1671258;84;21774;-37
2021/04/26 08:32:47;;;;;;;1.42;1.32;;;;;;;4.53;85.55;99931.01;1653635;84;21155;-37
2021/04/26 08:35:16;;;;;;;1.20;1.12;;;;;;;4.54;84.84;99928.86;1641986;86;21161;-41
2021/04/26 08:37:45;;;;;;;0.90;0.90;;;;;;;4.57;83.95;99935.38;1710151;82;21646;-37
2021/04/26 08:40:15;;;;;;;1.22;1.10;;;;;;;4.61;83.53;99938.48;1707758;82;21682;-37
2021/04/26 08:42:45;;;;;;;1.17;1.10;;;;;;;4.64;83.25;99942.45;1682740;82;21203;-41
2021/04/26 08:45:13;;;;;;;0.65;0.65;;;;;;;4.64;83.95;99946.72;1710227;82;21151;-41
2021/04/26 08:47:42;;;;;;;1.20;1.10;;;;;;;4.57;82.99;99940.98;1702003;82;21596;-41
2021/04/26 08:50:11;;;;;;;0.95;0.93;;;;;;;4.48;81.99;99943.88;1701871;82;21887;-41
2021/04/26 08:52:40;;;;;;;0.80;0.80;;;;;;;4.37;80.91;99949.69;1703147;82;21242;-38
2021/04/26 08:55:11;;;;;;;1.32;0.80;;;;;;;4.31;82.03;99949.15;1700465;82;21186;-35
2021/04/26 08:57:40;;;;;;;0.72;0.70;;;;;;;4.31;83.28;99960.80;1702839;82;21144;-35
2021/04/26 09:00:13;;;;;;;0.60;0.60;;;;;;;4.32;82.53;99961.67;1699652;82;21216;-47
2021/04/26 09:02:48;;;;;;;0.60;0.60;;;;;;;4.24;79.82;99964.99;1661062;82;21711;-42
2021/04/26 09:05:30;;;;;;;0.60;0.42;;;;;;;4.17;81.56;99966.11;1696381;82;21227;-42
2021/04/26 09:08:03;;;;;;;0.40;0.40;;;;;;;4.11;81.25;99965.56;1691463;82;21162;-43
2021/04/26 09:10:45;;;;;;;0.30;0.30;;;;;;;4.10;81.25;99972.01;1697570;82;21186;-37
2021/04/26 09:13:33;;;;;;;0.53;0.40;;;;;;;4.07;81.07;99965.06;1700024;83;21179;-43
2021/04/26 09:16:20;;;;;;;0.40;0.40;;;;;;;4.07;81.32;99962.48;1699018;82;21163;-41
2021/04/26 09:19:04;;;;;;;0.33;0.33;;;;;;;4.13;81.03;99979.86;1697560;82;21191;-42
2021/04/26 09:21:44;;;;;;;0.40;0.30;;;;;;;4.16;79.60;99969.13;1697092;82;21655;-42
2021/04/26 09:24:19;;;;;;;0.57;0.40;;;;;;;4.17;80.32;99982.52;1697821;82;21675;-42
2021/04/26 09:26:49;;;;;;;0.85;0.53;;;;;;;4.15;79.58;100001.47;1698393;82;21317;-42
2021/04/26 09:29:22;;;;;;;1.30;0.98;;;;;;;4.08;80.64;100000.47;1701287;82;21171;-36
2021/04/26 09:32:14;;;;;;;0.50;0.50;;;;;;;4.02;82.29;99999.05;1696836;82;21215;-42
2021/04/26 09:34:47;;;;;;;0.82;0.60;;;;;;;4.02;82.55;100007.23;1702844;82;21587;-43
2021/04/26 09:37:26;;;;;;;0.40;0.40;;;;;;;3.97;83.04;100006.70;1701000;82;21168;-37
2021/04/26 09:40:12;;;;;;;0.50;0.50;;;;;;;3.91;82.06;100023.81;1689974;82;21221;-36
2021/04/26 09:42:49;;;;;;;0.47;0.47;;;;;;;3.84;81.46;100024.53;1696221;82;22334;-36
2021/04/26 09:45:33;;;;;;;0.60;0.60;;;;;;;3.77;81.18;100029.98;1696395;82;21225;-37
2021/04/26 09:48:23;;;;;;;0.60;0.60;;;;;;;3.70;81.56;100033.24;1691653;82;21707;-42
2021/04/26 09:51:05;;;;;;;0.65;0.65;;;;;;;3.62;81.44;100038.25;1697903;82;21156;-42
2021/04/26 09:53:43;;;;;;;0.98;0.80;;;;;;;3.62;82.18;100034.80;1695107;82;21175;-37
2021/04/26 09:56:30;;;;;;;1.37;1.02;;;;;;;3.65;82.34;100035.75;1696443;82;21213;-42
2021/04/26 09:59:04;;;;;;;0.80;0.80;;;;;;;3.66;81.94;100037.49;1665263;84;21610;-42
2021/04/26 10:01:39;;;;;;;0.60;0.60;;;;;;;3.64;80.81;100039.57;1661454;84;21165;-41
2021/04/26 10:04:10;;;;;;;0.80;0.80;;;;;;;3.59;81.03;100045.92;1659215;84;21217;-41
2021/04/26 10:06:39;;;;;;;0.70;0.70;;;;;;;3.51;80.92;100057.81;1697953;82;21184;-41
2021/04/26 10:09:10;;;;;;;0.50;0.50;;;;;;;3.45;81.50;100056.37;1698100;82;21155;-41
2021/04/26 10:11:39;;;;;;;1.47;0.80;;;;;;;3.44;82.02;100060.66;1666065;84;21528;-36
2021/04/26 10:14:11;;;;;;;1.40;1.30;;;;;;;3.48;81.44;100062.92;1697260;82;21196;-36
2021/04/26 10:17:03;;;;;;;0.93;0.93;;;;;;;3.44;81.11;100059.38;1703696;82;21264;-36
2021/04/26 10:19:38;;;;;;;0.70;0.70;;;;;;;3.42;81.72;100075.28;1700199;82;21175;-35
2021/04/26 10:22:08;;;;;;;0.85;0.85;;;;;;;3.48;81.31;100073.27;1696524;82;21741;-43
2021/04/26 10:24:56;;;;;;;1.55;1.30;;;;;;;3.55;80.82;100072.58;1700810;82;21176;-37
2021/04/26 10:27:33;;;;;;;1.17;1.07;;;;;;;3.78;81.16;100068.38;1682179;82;21184;-45
2021/04/26 10:30:13;;;;;;;2.25;2.00;;;;;;;4.08;80.23;100066.91;1699608;82;21183;-41
2021/04/26 10:32:59;;;;;;;1.35;1.25;;;;;;;4.27;79.63;100060.86;1682776;82;21663;-42
2021/04/26 10:35:55;;;;;;;2.30;0.82;;;;;;;4.59;79.96;100065.86;1701245;82;21723;-44
2021/04/26 10:38:46;;;;;;;1.00;1.00;;;;;;;5.23;77.43;100066.22;1685976;82;21191;-38
2021/04/26 10:41:52;;;;;;;1.20;1.10;;;;;;;5.94;74.71;100063.95;1652615;82;21771;-36
2021/04/26 10:44:50;;;;;;;1.02;1.00;;;;;;;6.23;71.98;100066.97;1703057;82;21609;-43
2021/04/26 10:47:44;;;;;;;1.30;1.02;;;;;;;6.47;69.08;100061.65;1656947;84;21465;-44
2021/04/26 10:50:27;;;;;;;1.35;1.10;;;;;;;6.40;67.67;100062.00;1638765;83;21180;-45
2021/04/26 10:52:56;;;;;;;1.95;1.20;;;;;;;6.20;67.45;100069.94;1693179;82;21195;-43
2021/04/26 10:55:30;;;;;;;2.52;1.60;;;;;;;6.15;68.43;100078.98;1700299;82;21201;-42
2021/04/26 10:58:03;;;;;;;2.72;1.30;;;;;;;6.07;68.21;100081.45;1702546;82;21190;-43
2021/04/26 11:00:42;;;;;;;2.22;1.30;;;;;;;6.26;67.06;100076.12;1694216;82;21655;-37
2021/04/26 11:03:19;;;;;;;1.37;1.07;;;;;;;6.59;67.72;100069.17;1698126;82;21175;-37
2021/04/26 11:05:50;;;;;;;1.37;1.27;;;;;;;7.15;64.33;100081.96;1702432;82;21318;-38
2021/04/26 11:08:35;;;;;;;1.45;1.20;;;;;;;7.69;62.22;100071.60;1649676;84;21679;-37
2021/04/26 11:11:15;;;;;;;1.30;1.20;;;;;;;7.62;62.32;100081.53;1657860;84;21213;-37
2021/04/26 11:13:52;;;;;;;0.90;0.90;;;;;;;7.59;61.24;100078.02;1661585;84;21515;-37
2021/04/26 11:16:31;;;;;;;4.17;1.50;;;;;;;7.49;61.67;100082.73;1657520;84;21235;-37
2021/04/26 11:19:06;;;;;;;2.20;1.95;;;;;;;7.45;61.36;100075.30;1705798;82;21153;-37
2021/04/26 11:21:49;;;;;;;1.55;1.35;;;;;;;7.32;60.30;100085.16;1694804;82;21840;-37
2021/04/26 11:24:30;;;;;;;1.90;1.20;;;;;;;7.12;60.57;100082.34;1659645;84;21837;-38
2021/04/26 11:27:18;;;;;;;0.93;0.90;;;;;;;6.98;60.16;100085.23;1635405;86;21186;-38
2021/04/26 11:29:53;;;;;;;1.45;1.27;;;;;;;7.04;61.57;100090.51;1697322;82;21195;-37
2021/04/26 11:32:22;;;;;;;3.15;1.35;;;;;;;7.10;59.89;100094.05;1706304;82;21169;-37
2021/04/26 11:35:00;;;;;;;2.37;1.40;;;;;;;7.01;59.70;100093.92;1697399;82;21510;-36
2021/04/26 11:37:36;;;;;;;1.82;1.17;;;;;;;7.04;60.24;100104.81;1694670;82;21131;-36
2021/04/26 11:40:21;;;;;;;1.42;1.10;;;;;;;7.00;59.12;100108.23;1701117;82;21214;-36
2021/04/26 11:42:49;;;;;;;2.00;1.22;;;;;;;6.99;58.78;100111.69;1670781;84;21202;-36
2021/04/26 11:45:21;;;;;;;1.47;1.32;;;;;;;6.89;59.76;100121.09;1659514;84;21259;-36
2021/04/26 11:47:49;;;;;;;3.05;1.40;;;;;;;6.76;59.88;100118.78;1667721;84;21505;-38
2021/04/26 11:50:17;;;;;;;2.77;1.55;;;;;;;6.76;60.84;100125.28;1653320;84;21210;-37
2021/04/26 11:52:45;;;;;;;1.37;1.17;;;;;;;6.71;61.25;100117.84;1667162;84;21205;-38
2021/04/26 11:55:18;;;;;;;2.02;1.22;;;;;;;6.64;58.33;100131.20;1664374;84;21201;-37
2021/04/26 11:57:55;;;;;;;2.05;1.42;;;;;;;6.50;57.99;100114.56;1669313;86;21220;-37
2021/04/26 12:00:25;;;;;;;1.30;1.02;;;;;;;6.39;58.17;100130.00;1659166;84;21234;-37
2021/04/26 12:03:02;;;;;;;3.45;1.47;;;;;;;6.38;59.98;100122.19;1657831;84;21201;-37
2021/04/26 12:05:31;;;;;;;1.95;1.30;;;;;;;6.57;59.99;100115.52;1660073;84;21700;-37
2021/04/26 12:07:59;;;;;;;2.02;1.35;;;;;;;6.94;58.48;100117.70;1659047;84;21177;-36
2021/04/26 12:10:29;;;;;;;1.67;1.00;;;;;;;7.27;56.04;100134.99;1711468;82;21652;-37
2021/04/26 12:13:05;;;;;;;3.00;1.30;;;;;;;7.43;56.02;100119.98;1708969;82;21208;-37
2021/04/26 12:15:36;;;;;;;0.90;0.88;;;;;;;7.72;57.10;100125.03;1710952;82;21609;-42
2021/04/26 12:18:05;;;;;;;1.40;1.00;;;;;;;7.89;53.74;100139.50;1714519;82;21195;-42
2021/04/26 12:20:38;;;;;;;1.98;1.15;;;;;;;7.81;52.98;100120.75;1707427;82;21225;-43
2021/04/26 12:23:18;;;;;;;1.02;0.93;;;;;;;7.65;53.28;100109.31;1714920;83;21939;-43
2021/04/26 12:25:48;;;;;;;1.27;1.17;;;;;;;7.52;53.97;100112.24;1712731;82;21218;-41
2021/04/26 12:28:18;;;;;;;1.42;1.32;;;;;;;7.43;53.44;100121.28;1715199;82;21318;-42
2021/04/26 12:30:49;;;;;;;2.25;1.35;;;;;;;7.45;55.59;100119.56;1707250;82;21617;-42
2021/04/26 12:33:32;;;;;;;2.05;1.40;;;;;;;7.51;52.29;100118.75;1718221;83;21221;-42
2021/04/26 12:36:03;;;;;;;1.57;1.40;;;;;;;7.54;54.73;100118.76;1715929;82;21589;-37
2021/04/26 12:38:35;;;;;;;1.77;1.20;;;;;;;7.54;53.93;100127.47;1719212;83;21197;-37
2021/04/26 12:41:03;;;;;;;2.87;1.37;;;;;;;7.53;55.34;100128.30;1719256;82;21613;-37
2021/04/26 12:43:35;;;;;;;1.55;1.27;;;;;;;7.55;54.98;100127.91;1700421;83;21227;-43
2021/04/26 12:46:07;;;;;;;2.62;1.32;;;;;;;7.57;54.20;100127.48;1709470;82;21224;-42
2021/04/26 12:48:36;;;;;;;1.20;1.10;;;;;;;7.46;53.63;100127.80;1716259;83;21186;-42
